Time;durP1;ratioP1;P1;durP2;ratioP2;P2;SDS_P1;SDS_P2;PMS_P1;PMS_P2;Temp;Humidity;BMP_temperature;BMP_pressure;BME280_temperature;BME280_humidity;BME280_pressure;Samples;Min_cycle;Max_cycle;Signal;HPM_P1;HPM_P2
2022/06/25 00:00:26;;;;;;;15.82;1.77;;;;;;;19.82;100.00;94178.41;4980206;28;20038;-89
2022/06/25 00:02:52;;;;;;;18.15;2.65;;;;;;;20.02;100.00;94182.13;4980367;28;20026;-89
2022/06/25 00:05:29;;;;;;;7.55;2.25;;;;;;;20.16;100.00;94179.16;4996272;28;20080;-88
2022/06/25 00:07:55;;;;;;;8.10;1.58;;;;;;;20.05;100.00;94179.59;4996531;28;20454;-88
2022/06/25 00:10:22;;;;;;;5.95;1.77;;;;;;;19.93;100.00;94179.56;4996220;28;20109;-88
2022/06/25 00:12:47;;;;;;;7.72;2.03;;;;;;;20.18;100.00;94176.94;4980156;28;20335;-88
2022/06/25 00:15:13;;;;;;;12.45;2.10;;;;;;;20.01;100.00;94173.38;4996434;28;20030;-88
2022/06/25 00:17:38;;;;;;;11.30;1.98;;;;;;;20.03;100.00;94178.34;4980577;28;20080;-88
2022/06/25 00:20:08;;;;;;;6.78;2.20;;;;;;;19.66;100.00;94178.28;4980395;28;20041;-88
2022/06/25 00:22:33;;;;;;;8.90;1.80;;;;;;;19.51;100.00;94180.47;4996141;28;20038;-88
2022/06/25 00:24:59;;;;;;;10.23;2.42;;;;;;;19.61;100.00;94177.38;4980031;28;20079;-88
2022/06/25 00:27:25;;;;;;;20.58;3.03;;;;;;;19.72;100.00;94190.25;4995951;28;20034;-89
2022/06/25 00:29:50;;;;;;;10.88;2.35;;;;;;;19.23;100.00;94183.72;4996013;28;20041;-88
2022/06/25 00:32:16;;;;;;;15.43;2.45;;;;;;;19.39;100.00;94175.88;4996165;28;20026;-88
2022/06/25 00:34:41;;;;;;;11.63;1.90;;;;;;;19.56;100.00;94182.91;4996051;28;20034;-88
2022/06/25 00:37:07;;;;;;;11.43;2.28;;;;;;;19.71;100.00;94181.50;4980352;28;20040;-88
2022/06/25 00:39:34;;;;;;;12.63;2.53;;;;;;;19.94;100.00;94172.34;4980240;28;20470;-89
2022/06/25 00:42:00;;;;;;;11.57;2.38;;;;;;;19.83;100.00;94175.44;4979995;28;20034;-89
2022/06/25 00:44:29;;;;;;;12.43;2.47;;;;;;;19.53;100.00;94183.59;4995611;28;20084;-88
2022/06/25 00:46:54;;;;;;;12.15;2.53;;;;;;;19.91;100.00;94176.44;4980286;28;20100;-89
2022/06/25 00:49:20;;;;;;;14.60;2.58;;;;;;;19.91;100.00;94169.22;4995874;28;20034;-88
2022/06/25 00:51:47;;;;;;;15.68;2.97;;;;;;;19.69;100.00;94183.72;4995883;28;20046;-89
2022/06/25 00:54:13;;;;;;;8.73;2.03;;;;;;;19.86;100.00;94180.09;4996125;28;20447;-89
2022/06/25 00:56:45;;;;;;;11.27;2.33;;;;;;;20.03;100.00;94170.38;4979926;28;20058;-88
2022/06/25 00:59:12;;;;;;;8.43;2.25;;;;;;;19.84;100.00;94198.25;4995714;28;20085;-88
2022/06/25 01:01:37;;;;;;;10.55;2.65;;;;;;;19.98;100.00;94179.34;4995884;28;20026;-88
2022/06/25 01:04:03;;;;;;;10.57;2.55;;;;;;;19.79;100.00;94185.16;4995796;28;20080;-88
2022/06/25 01:06:28;;;;;;;6.63;2.40;;;;;;;19.77;100.00;94176.75;4979712;28;20062;-88
2022/06/25 01:08:55;;;;;;;12.80;2.47;;;;;;;19.64;100.00;94183.94;4995700;28;20037;-89
2022/06/25 01:11:21;;;;;;;11.55;2.08;;;;;;;19.69;100.00;94167.75;4995788;28;20026;-88
2022/06/25 01:13:47;;;;;;;15.02;2.08;;;;;;;19.69;100.00;94161.69;4997402;28;20088;-88
2022/06/25 01:16:12;;;;;;;9.68;2.17;;;;;;;19.57;100.00;94176.50;4999251;28;20030;-88
2022/06/25 01:18:38;;;;;;;10.55;2.58;;;;;;;19.63;100.00;94155.81;5000296;28;20034;-88
2022/06/25 01:21:03;;;;;;;6.22;2.22;;;;;;;19.70;100.00;94160.56;4999144;28;20030;-88
2022/06/25 01:23:30;;;;;;;14.70;2.75;;;;;;;19.83;100.00;94164.81;4982846;28;20065;-88
2022/06/25 01:25:55;;;;;;;11.60;2.65;;;;;;;19.74;100.00;94161.47;4998812;28;20034;-88
2022/06/25 01:28:21;;;;;;;9.90;2.20;;;;;;;19.91;100.00;94166.56;5000211;28;20130;-88
2022/06/25 01:30:46;;;;;;;8.98;2.15;;;;;;;19.88;100.00;94167.22;4998914;28;20030;-88
2022/06/25 01:33:12;;;;;;;12.02;2.05;;;;;;;19.91;100.00;94165.81;4982874;28;20030;-88
2022/06/25 01:35:37;;;;;;;12.02;2.70;;;;;;;20.10;100.00;94157.31;4982931;28;20320;-87
2022/06/25 01:38:02;;;;;;;12.73;2.60;;;;;;;20.06;100.00;94165.19;4998927;28;20030;-87
2022/06/25 01:40:28;;;;;;;11.65;2.63;;;;;;;20.11;100.00;94168.72;4982687;28;20038;-87
2022/06/25 01:43:01;;;;;;;11.98;2.40;;;;;;;19.99;100.00;94164.19;4982696;28;20030;-88
2022/06/25 01:45:33;;;;;;;15.93;2.73;;;;;;;19.94;100.00;94167.81;4999822;28;20034;-88
2022/06/25 01:48:00;;;;;;;5.85;2.08;;;;;;;19.98;100.00;94170.59;5019442;28;20128;-88
2022/06/25 01:50:26;;;;;;;13.70;2.80;;;;;;;20.07;100.00;94171.25;5001863;28;20038;-88
2022/06/25 01:52:52;;;;;;;13.25;2.80;;;;;;;20.02;100.00;94166.16;5001850;28;20107;-89
2022/06/25 01:55:18;;;;;;;11.57;2.50;;;;;;;19.96;100.00;94162.19;4985458;28;20120;-88
2022/06/25 01:57:43;;;;;;;9.25;2.30;;;;;;;19.80;100.00;94168.13;5001521;28;20069;-88
2022/06/25 02:00:12;;;;;;;8.68;2.53;;;;;;;19.87;100.00;94175.53;5001381;28;20116;-88
2022/06/25 02:02:41;;;;;;;15.13;2.63;;;;;;;19.84;100.00;94174.34;5001661;28;20041;-87
2022/06/25 02:05:07;;;;;;;6.25;2.03;;;;;;;19.82;100.00;94181.06;5001525;28;20034;-88
2022/06/25 02:07:33;;;;;;;9.00;2.47;;;;;;;19.81;100.00;94188.28;4985586;28;20052;-88
2022/06/25 02:09:58;;;;;;;11.32;2.20;;;;;;;19.62;100.00;94202.09;5001360;28;20037;-88
2022/06/25 02:12:36;;;;;;;16.17;2.45;;;;;;;19.86;100.00;94206.66;5001893;28;20026;-88
2022/06/25 02:15:02;;;;;;;7.75;2.35;;;;;;;19.63;100.00;94199.09;4987080;28;20687;-88
2022/06/25 02:17:43;;;;;;;9.95;2.38;;;;;;;19.54;100.00;94198.41;5000385;28;20034;-88
2022/06/25 02:20:12;;;;;;;10.35;1.80;;;;;;;19.52;100.00;94195.31;4981830;28;20030;-88
2022/06/25 02:22:37;;;;;;;12.57;2.67;;;;;;;19.39;100.00;94188.41;4965839;28;20041;-87
2022/06/25 02:25:03;;;;;;;10.27;2.15;;;;;;;19.48;100.00;94191.75;4980709;28;20034;-87
2022/06/25 02:27:29;;;;;;;8.18;2.50;;;;;;;19.49;100.00;94190.63;4981652;28;20454;-88
2022/06/25 02:29:57;;;;;;;12.18;2.83;;;;;;;19.06;100.00;94190.72;4998934;28;20034;-87
2022/06/25 02:32:22;;;;;;;15.68;2.80;;;;;;;18.96;100.00;94182.34;4999036;28;20113;-88
2022/06/25 02:34:48;;;;;;;12.52;2.63;;;;;;;18.94;100.00;94185.34;4965630;28;20416;-88
2022/06/25 02:37:13;;;;;;;8.85;2.35;;;;;;;18.94;100.00;94185.34;4981576;28;20097;-87
2022/06/25 02:39:38;;;;;;;12.73;3.03;;;;;;;19.05;100.00;94186.50;4998603;28;20085;-88
2022/06/25 02:42:04;;;;;;;9.85;2.78;;;;;;;19.01;100.00;94188.25;4965476;28;20096;-88
2022/06/25 02:44:30;;;;;;;9.73;2.67;;;;;;;18.88;100.00;94190.06;4965516;28;20336;-88
2022/06/25 02:46:55;;;;;;;9.43;3.00;;;;;;;18.87;100.00;94182.41;4981320;28;20034;-87
2022/06/25 02:49:20;;;;;;;9.25;2.50;;;;;;;18.87;100.00;94183.22;4980865;28;20037;-88
2022/06/25 02:51:46;;;;;;;13.27;2.50;;;;;;;19.02;100.00;94173.88;4981262;28;20085;-88
2022/06/25 02:54:11;;;;;;;9.25;2.10;;;;;;;18.84;100.00;94183.06;4965353;28;20081;-88
2022/06/25 02:59:21;;;;;;;9.57;2.55;;;;;;;19.09;100.00;94177.91;4983607;28;20041;-89
2022/06/25 03:01:47;;;;;;;12.93;2.28;;;;;;;19.51;100.00;94180.47;4997374;28;20030;-88
2022/06/25 03:04:12;;;;;;;12.82;2.85;;;;;;;19.69;100.00;94169.66;4965166;28;20368;-87
2022/06/25 03:06:38;;;;;;;7.97;2.25;;;;;;;19.86;100.00;94169.44;4964780;28;20507;-89
2022/06/25 03:09:05;;;;;;;9.45;2.35;;;;;;;19.85;100.00;94164.47;4981005;28;20033;-88
2022/06/25 03:11:31;;;;;;;5.03;2.15;;;;;;;20.01;100.00;94162.75;4981036;28;20026;-88
2022/06/25 03:13:56;;;;;;;11.93;2.90;;;;;;;20.02;100.00;94168.81;4997256;28;20502;-88
2022/06/25 03:16:22;;;;;;;12.05;2.40;;;;;;;19.95;100.00;94182.66;4980876;28;20416;-87
2022/06/25 03:18:49;;;;;;;8.98;2.63;;;;;;;20.01;100.00;94185.88;4998022;28;20030;-88
2022/06/25 03:21:14;;;;;;;9.50;2.55;;;;;;;19.95;100.00;94203.94;4980901;28;20034;-87
2022/06/25 03:23:40;;;;;;;7.70;2.42;;;;;;;19.87;100.00;94213.53;4964682;28;20026;-87
2022/06/25 03:26:05;;;;;;;10.82;2.72;;;;;;;19.73;100.00;94221.03;4997995;28;20087;-88
2022/06/25 03:28:33;;;;;;;8.50;2.47;;;;;;;19.79;100.00;94227.69;4965079;28;20034;-88
2022/06/25 03:30:59;;;;;;;15.77;2.58;;;;;;;19.85;100.00;94213.09;4980425;28;20442;-88
2022/06/25 03:33:24;;;;;;;10.77;2.90;;;;;;;19.81;100.00;94217.53;4964742;28;20030;-88
2022/06/25 03:35:50;;;;;;;8.07;2.35;;;;;;;19.78;100.00;94215.50;4980489;28;20134;-88
2022/06/25 03:38:15;;;;;;;10.27;2.65;;;;;;;19.70;100.00;94216.38;4996913;28;20343;-88
2022/06/25 03:40:41;;;;;;;13.98;2.95;;;;;;;19.73;100.00;94216.50;4999749;28;20030;-88
2022/06/25 03:43:06;;;;;;;9.77;2.70;;;;;;;19.70;100.00;94213.72;4999527;28;20038;-88
2022/06/25 03:45:31;;;;;;;9.95;2.60;;;;;;;19.80;100.00;94204.56;4980412;28;20129;-87
2022/06/25 03:47:57;;;;;;;8.73;2.40;;;;;;;19.73;100.00;94210.41;4997732;28;20030;-87
2022/06/25 03:50:25;;;;;;;12.82;2.60;;;;;;;19.68;100.00;94219.38;4980012;28;20030;-88
2022/06/25 03:52:52;;;;;;;7.68;2.20;;;;;;;19.85;100.00;94215.75;4980362;28;20427;-87
2022/06/25 03:55:18;;;;;;;9.55;2.90;;;;;;;19.88;100.00;94214.31;4980678;28;20038;-87
2022/06/25 03:57:44;;;;;;;16.35;2.60;;;;;;;19.91;100.00;94222.41;4980874;28;20030;-88
2022/06/25 04:00:12;;;;;;;5.43;2.13;;;;;;;19.99;100.00;94225.34;4979972;28;20034;-88
2022/06/25 04:02:37;;;;;;;10.32;2.45;;;;;;;19.88;100.00;94224.97;4996360;28;20030;-87
2022/06/25 04:05:04;;;;;;;9.13;2.53;;;;;;;19.82;100.00;94231.56;4997447;28;20042;-87
2022/06/25 04:07:32;;;;;;;13.27;2.70;;;;;;;19.80;100.00;94239.91;4980345;28;20092;-88
2022/06/25 04:09:58;;;;;;;10.73;2.42;;;;;;;19.80;100.00;94234.59;4980453;28;20030;-87
2022/06/25 04:12:23;;;;;;;7.78;2.20;;;;;;;19.99;100.00;94244.72;4980296;28;20022;-87
2022/06/25 04:14:49;;;;;;;7.40;2.40;;;;;;;19.47;100.00;94248.63;4997443;28;20526;-87
2022/06/25 04:17:14;;;;;;;9.65;2.33;;;;;;;19.43;100.00;94259.13;4979989;28;20037;-88
2022/06/25 04:19:42;;;;;;;8.57;2.53;;;;;;;19.88;100.00;94257.63;4980087;28;20345;-87
2022/06/25 04:22:12;;;;;;;9.77;2.90;;;;;;;19.95;100.00;94259.78;4980257;28;20033;-88
2022/06/25 04:24:39;;;;;;;9.20;2.30;;;;;;;19.84;100.00;94264.72;4980196;28;20030;-87
2022/06/25 04:27:05;;;;;;;8.95;2.80;;;;;;;19.89;100.00;94263.72;4979622;28;20026;-88
2022/06/25 04:29:31;;;;;;;9.75;2.33;;;;;;;20.01;100.00;94265.66;4980326;28;20116;-88
2022/06/25 04:31:57;;;;;;;11.30;2.60;;;;;;;20.01;100.00;94270.97;4979753;28;20030;-88
2022/06/25 04:34:23;;;;;;;9.68;3.13;;;;;;;20.02;100.00;94275.97;4979861;28;20077;-88
2022/06/25 04:36:51;;;;;;;7.53;2.45;;;;;;;20.02;100.00;94283.16;4979652;28;20022;-88
2022/06/25 04:39:17;;;;;;;9.48;2.83;;;;;;;20.11;100.00;94277.75;4980083;28;20041;-89
2022/06/25 04:41:43;;;;;;;12.95;3.38;;;;;;;20.09;100.00;94279.97;4996030;28;20436;-87
2022/06/25 04:44:09;;;;;;;9.65;2.45;;;;;;;20.08;100.00;94276.50;4979846;28;20026;-89
2022/06/25 04:46:34;;;;;;;10.52;2.58;;;;;;;20.18;100.00;94281.41;4979787;28;20061;-88
2022/06/25 04:49:00;;;;;;;9.05;2.72;;;;;;;20.26;100.00;94279.00;4982008;28;20372;-88
2022/06/25 04:51:26;;;;;;;7.07;2.15;;;;;;;20.20;100.00;94278.44;4983474;28;20034;-87
2022/06/25 04:53:55;;;;;;;8.60;2.38;;;;;;;20.16;100.00;94280.97;4983385;28;20116;-87
2022/06/25 04:56:22;;;;;;;13.10;3.03;;;;;;;20.16;100.00;94280.97;4983776;28;20033;-87
2022/06/25 04:58:47;;;;;;;8.85;2.40;;;;;;;19.94;100.00;94276.84;4983379;28;20089;-87
2022/06/25 05:01:13;;;;;;;7.13;2.80;;;;;;;19.91;100.00;94267.59;4983631;28;20402;-87
2022/06/25 05:03:38;;;;;;;14.88;2.75;;;;;;;19.87;100.00;94273.88;5000601;28;20030;-87
2022/06/25 05:06:06;;;;;;;11.80;2.53;;;;;;;19.73;100.00;94279.50;4983504;28;20054;-87
2022/06/25 05:08:37;;;;;;;7.15;2.35;;;;;;;19.67;100.00;94278.19;5000634;28;20423;-87
2022/06/25 05:11:03;;;;;;;9.73;2.40;;;;;;;19.66;100.00;94288.03;4999555;28;20431;-88
2022/06/25 05:13:29;;;;;;;10.85;2.70;;;;;;;19.55;100.00;94295.63;4983338;28;20116;-87
2022/06/25 05:15:55;;;;;;;8.88;2.50;;;;;;;19.56;100.00;94294.50;4983240;28;20404;-88
2022/06/25 05:18:20;;;;;;;15.25;2.63;;;;;;;19.43;100.00;94298.22;4983521;28;20073;-88
2022/06/25 05:20:45;;;;;;;14.05;3.08;;;;;;;19.60;100.00;94300.72;4983138;28;20400;-88
2022/06/25 05:23:12;;;;;;;7.63;2.80;;;;;;;19.62;100.00;94305.72;4982937;28;20450;-88
2022/06/25 05:25:38;;;;;;;6.32;2.33;;;;;;;19.88;100.00;94308.13;4999295;28;20026;-88
2022/06/25 05:28:04;;;;;;;8.90;2.70;;;;;;;20.06;100.00;94302.66;4999118;28;20339;-86
2022/06/25 05:30:30;;;;;;;13.80;2.78;;;;;;;20.30;100.00;94301.16;4982598;28;20030;-86
2022/06/25 05:32:56;;;;;;;9.73;3.25;;;;;;;20.51;100.00;94306.41;4982449;28;20030;-86
2022/06/25 05:35:22;;;;;;;12.18;2.50;;;;;;;20.68;100.00;94299.28;4998882;28;20436;-87
2022/06/25 05:37:47;;;;;;;9.20;2.53;;;;;;;20.80;100.00;94306.50;5000031;28;20448;-87
2022/06/25 05:40:13;;;;;;;11.40;2.13;;;;;;;20.54;100.00;94307.63;5001122;28;20033;-88
2022/06/25 05:42:38;;;;;;;6.93;1.98;;;;;;;20.16;100.00;94304.91;5021769;28;20104;-87
2022/06/25 05:45:04;;;;;;;8.10;1.88;;;;;;;20.29;100.00;94312.91;5005434;28;20025;-86
2022/06/25 05:47:40;;;;;;;7.72;1.77;;;;;;;20.40;100.00;94314.03;5038847;28;20033;-87
2022/06/25 05:50:06;;;;;;;6.00;2.25;;;;;;;20.27;100.00;94313.22;5005422;28;20041;-87
2022/06/25 05:52:32;;;;;;;13.75;2.58;;;;;;;20.09;100.00;94320.66;5021552;28;20032;-87
2022/06/25 05:54:57;;;;;;;11.13;2.08;;;;;;;20.19;100.00;94330.09;5021782;28;20415;-87
2022/06/25 05:57:23;;;;;;;11.43;2.15;;;;;;;20.35;100.00;94338.19;5021400;28;20377;-88
2022/06/25 05:59:58;;;;;;;10.38;2.25;;;;;;;20.46;100.00;94344.63;5004817;28;20079;-87
2022/06/25 06:02:26;;;;;;;6.35;2.58;;;;;;;20.40;100.00;94343.31;4986912;28;20037;-87
2022/06/25 06:04:52;;;;;;;9.45;2.28;;;;;;;20.17;100.00;94341.03;5001819;28;20038;-86
2022/06/25 06:07:24;;;;;;;11.70;2.50;;;;;;;20.19;100.00;94341.47;5001322;28;20030;-86
2022/06/25 06:09:50;;;;;;;12.77;2.42;;;;;;;20.24;100.00;94342.41;5001477;28;20022;-86
2022/06/25 06:12:15;;;;;;;7.80;2.10;;;;;;;20.56;100.00;94332.78;4985521;28;20137;-85
2022/06/25 06:14:41;;;;;;;9.27;2.13;;;;;;;20.51;100.00;94337.53;5001308;28;20026;-86
2022/06/25 06:17:06;;;;;;;6.97;2.13;;;;;;;21.08;100.00;94340.44;5001198;28;20026;-88
2022/06/25 06:19:32;;;;;;;6.28;2.20;;;;;;;21.39;100.00;94345.19;5001204;28;20026;-87
2022/06/25 06:21:57;;;;;;;10.55;2.72;;;;;;;21.45;100.00;94343.84;5001412;28;20312;-87
2022/06/25 06:24:22;;;;;;;8.75;2.20;;;;;;;21.74;100.00;94344.69;5018835;28;20022;-86
2022/06/25 06:26:48;;;;;;;12.35;2.38;;;;;;;21.43;100.00;94345.28;5000969;28;20347;-86
2022/06/25 06:29:13;;;;;;;10.27;2.75;;;;;;;21.53;100.00;94344.03;5000749;28;20021;-89
2022/06/25 06:31:39;;;;;;;13.60;2.80;;;;;;;21.71;100.00;94339.25;5001107;28;20431;-90
2022/06/25 06:34:04;;;;;;;10.30;2.47;;;;;;;21.97;100.00;94330.03;5001248;28;20029;-89
2022/06/25 06:36:31;;;;;;;13.32;2.20;;;;;;;21.99;100.00;94338.47;5018388;28;20447;-87
2022/06/25 06:38:56;;;;;;;9.23;2.65;;;;;;;22.33;100.00;94340.84;5018226;28;20026;-88
2022/06/25 06:41:22;;;;;;;10.32;2.03;;;;;;;22.49;100.00;94340.88;4998344;28;20128;-88
2022/06/25 06:43:48;;;;;;;12.20;2.70;;;;;;;22.42;100.00;94346.78;4998727;28;20073;-87
2022/06/25 06:46:14;;;;;;;4.90;2.30;;;;;;;22.76;100.00;94352.59;4965097;28;20041;-87
2022/06/25 06:48:40;;;;;;;7.22;2.20;;;;;;;22.91;100.00;94342.25;4981187;28;20096;-86
2022/06/25 06:51:05;;;;;;;9.30;2.35;;;;;;;23.04;100.00;94340.22;4998593;28;20407;-87
2022/06/25 06:53:31;;;;;;;7.28;2.28;;;;;;;22.68;100.00;94343.63;4993358;28;20053;-87
2022/06/25 06:55:57;;;;;;;8.02;2.22;;;;;;;22.52;100.00;94342.84;4984537;28;20025;-87
2022/06/25 06:58:22;;;;;;;12.38;2.90;;;;;;;22.65;100.00;94340.88;5000577;28;20018;-88
2022/06/25 07:00:48;;;;;;;8.93;2.45;;;;;;;22.96;100.00;94347.31;4981038;28;20030;-87
2022/06/25 07:03:13;;;;;;;6.85;1.75;;;;;;;22.29;100.00;94348.75;4980811;28;20029;-88
2022/06/25 07:05:42;;;;;;;7.18;2.38;;;;;;;22.71;100.00;94345.63;4980946;28;20030;-87
2022/06/25 07:08:07;;;;;;;9.95;2.40;;;;;;;22.92;100.00;94339.22;5017797;28;20034;-87
2022/06/25 07:10:33;;;;;;;11.98;2.42;;;;;;;22.74;100.00;94352.94;4999523;28;20042;-87
2022/06/25 07:12:58;;;;;;;7.00;2.20;;;;;;;23.14;100.00;94355.72;4983748;28;20026;-87
2022/06/25 07:15:23;;;;;;;6.70;1.90;;;;;;;23.16;100.00;94356.16;5017873;28;20022;-87
2022/06/25 07:17:49;;;;;;;10.18;2.53;;;;;;;23.50;100.00;94345.81;5000311;28;20455;-88
2022/06/25 07:20:14;;;;;;;12.73;2.08;;;;;;;23.80;100.00;94349.84;5017787;28;20018;-87
2022/06/25 07:22:40;;;;;;;8.48;1.80;;;;;;;23.82;100.00;94351.06;5000530;28;20048;-89
2022/06/25 07:25:05;;;;;;;11.90;1.92;;;;;;;23.84;99.79;94348.78;5000344;28;20021;-87
2022/06/25 07:27:31;;;;;;;6.50;2.00;;;;;;;23.89;93.31;94352.31;5017227;28;20034;-86
2022/06/25 07:29:56;;;;;;;7.03;2.08;;;;;;;23.57;89.03;94337.16;4999824;28;20025;-87
2022/06/25 07:32:22;;;;;;;10.07;2.30;;;;;;;23.53;96.99;94347.81;4999936;28;20449;-88
2022/06/25 07:34:48;;;;;;;6.30;2.03;;;;;;;23.64;88.52;94352.59;4983547;28;20112;-87
2022/06/25 07:37:13;;;;;;;6.97;2.05;;;;;;;23.47;92.68;94343.09;5017350;28;20334;-87
2022/06/25 07:39:39;;;;;;;7.13;1.95;;;;;;;23.41;99.64;94339.91;4983884;28;20343;-87
2022/06/25 07:42:04;;;;;;;9.70;2.00;;;;;;;23.16;95.80;94342.78;4983870;28;20026;-87
2022/06/25 07:44:30;;;;;;;9.73;2.25;;;;;;;22.90;97.50;94344.13;5000108;28;20029;-88
2022/06/25 07:46:55;;;;;;;10.43;2.13;;;;;;;23.00;93.54;94340.94;4999734;28;20112;-88
2022/06/25 07:49:21;;;;;;;13.50;2.60;;;;;;;23.20;91.04;94343.63;4983663;28;20022;-87
2022/06/25 07:51:56;;;;;;;5.82;1.77;;;;;;;23.05;96.37;94347.13;4999423;28;20064;-88
2022/06/25 07:54:25;;;;;;;9.48;2.10;;;;;;;23.58;89.33;94352.09;5000964;28;20068;-90
2022/06/25 07:56:50;;;;;;;7.75;1.90;;;;;;;23.62;86.17;94352.94;4983205;28;20077;-89
2022/06/25 07:59:16;;;;;;;12.38;1.88;;;;;;;23.57;92.41;94343.31;4983142;28;20428;-89
2022/06/25 08:01:41;;;;;;;11.07;2.10;;;;;;;23.27;86.40;94354.53;5017178;28;20030;-89
2022/06/25 08:04:07;;;;;;;5.22;1.75;;;;;;;23.38;83.94;94346.72;5017036;28;20116;-91
2022/06/25 08:06:34;;;;;;;9.32;1.95;;;;;;;23.79;82.66;94341.03;4983323;28;20427;-89
2022/06/25 08:09:01;;;;;;;12.68;1.42;;;;;;;23.68;77.49;94348.84;4983796;28;20038;-88
2022/06/25 08:11:26;;;;;;;3.97;1.35;;;;;;;23.31;76.14;94343.88;4999841;28;20080;-88
2022/06/25 08:13:52;;;;;;;11.75;1.40;;;;;;;23.49;81.22;94348.84;4999687;28;20371;-88
2022/06/25 08:16:18;;;;;;;4.03;1.35;;;;;;;23.33;73.54;94344.34;5017323;28;20026;-89
2022/06/25 08:18:43;;;;;;;11.57;1.35;;;;;;;23.35;73.26;94343.97;4999212;28;20030;-88
2022/06/25 08:21:09;;;;;;;6.60;1.30;;;;;;;23.57;76.22;94342.50;4999477;28;20029;-88
2022/06/25 08:23:34;;;;;;;4.53;1.38;;;;;;;23.72;74.05;94351.59;4985173;28;20030;-88
2022/06/25 08:26:00;;;;;;;6.90;1.33;;;;;;;23.41;70.78;94346.03;5003133;28;20034;-88
2022/06/25 08:28:25;;;;;;;4.43;1.60;;;;;;;23.33;69.96;94341.66;5020994;28;20032;-87
2022/06/25 08:30:51;;;;;;;4.95;1.13;;;;;;;23.39;71.94;94342.94;5002927;28;20030;-88
2022/06/25 08:33:16;;;;;;;4.90;1.30;;;;;;;23.50;69.78;94350.41;5003251;28;20459;-88
2022/06/25 08:35:42;;;;;;;4.68;1.38;;;;;;;23.29;69.95;94354.94;5003355;28;20026;-88
2022/06/25 08:38:07;;;;;;;5.20;1.20;;;;;;;23.54;71.92;94359.25;5020687;28;20030;-88
2022/06/25 08:40:33;;;;;;;5.07;1.35;;;;;;;23.51;69.35;94350.03;4987132;28;20026;-88
2022/06/25 08:42:59;;;;;;;4.90;1.30;;;;;;;23.56;69.23;94359.69;4987166;28;20056;-89
2022/06/25 08:45:24;;;;;;;4.75;1.20;;;;;;;23.67;70.32;94349.19;4987324;28;20033;-88
2022/06/25 08:47:51;;;;;;;8.52;1.65;;;;;;;23.59;67.71;94361.66;4986551;28;20037;-89
2022/06/25 08:50:21;;;;;;;4.00;1.30;;;;;;;23.90;66.64;94356.53;4986974;28;20362;-87
2022/06/25 08:52:48;;;;;;;4.18;1.25;;;;;;;23.95;67.56;94358.91;5003269;28;20025;-88
2022/06/25 08:55:30;;;;;;;5.65;1.50;;;;;;;24.19;65.82;94349.06;4986976;28;20026;-88
2022/06/25 08:57:56;;;;;;;10.63;1.83;;;;;;;23.99;64.48;94354.41;5020426;28;20025;-88
2022/06/25 09:00:22;;;;;;;6.15;1.25;;;;;;;24.10;62.82;94354.66;4986389;28;20462;-88
2022/06/25 09:02:48;;;;;;;6.88;1.30;;;;;;;23.88;62.14;94354.19;4986610;28;20026;-89
2022/06/25 09:05:13;;;;;;;3.00;1.23;;;;;;;24.31;63.59;94348.91;5002846;28;20079;-89
2022/06/25 09:07:54;;;;;;;3.83;1.08;;;;;;;24.22;59.94;94354.47;4986405;28;20025;-87
2022/06/25 09:10:20;;;;;;;6.05;1.52;;;;;;;24.31;59.48;94359.59;5002843;28;20056;-88
2022/06/25 09:12:51;;;;;;;4.57;1.00;;;;;;;24.38;59.55;94348.25;5002670;28;20026;-90
2022/06/25 09:15:22;;;;;;;4.93;1.45;;;;;;;23.83;61.74;94352.59;5019612;28;20427;-89
2022/06/25 09:17:50;;;;;;;2.90;1.30;;;;;;;24.31;61.79;94348.91;5019578;28;20071;-89
2022/06/25 09:20:15;;;;;;;9.07;1.48;;;;;;;24.38;61.12;94353.59;5002003;28;20052;-88
2022/06/25 09:22:57;;;;;;;5.78;1.42;;;;;;;24.55;60.44;94352.38;5019988;28;20033;-90
2022/06/25 09:25:24;;;;;;;5.70;1.25;;;;;;;24.88;59.01;94348.31;5002183;28;20037;-88
2022/06/25 09:27:50;;;;;;;3.80;1.10;;;;;;;24.19;61.21;94343.72;4986012;28;20434;-89
2022/06/25 09:30:22;;;;;;;5.03;1.58;;;;;;;24.68;58.95;94345.69;5002050;28;20026;-89
2022/06/25 09:32:48;;;;;;;6.57;2.20;;;;;;;24.37;57.73;94352.81;5002195;28;20041;-90
2022/06/25 09:35:15;;;;;;;9.63;1.63;;;;;;;24.58;56.81;94351.66;5001410;28;20049;-88
2022/06/25 09:37:42;;;;;;;3.70;1.10;;;;;;;24.55;59.53;94344.34;5002049;28;20033;-89
2022/06/25 09:40:09;;;;;;;3.38;0.90;;;;;;;24.87;58.35;94344.09;5001938;28;20056;-89
2022/06/25 09:42:35;;;;;;;3.90;1.13;;;;;;;25.12;57.63;94346.38;5019446;28;20116;-89
2022/06/25 09:45:07;;;;;;;4.22;1.00;;;;;;;25.05;56.32;94347.03;5019507;28;20118;-88
2022/06/25 09:47:43;;;;;;;6.57;0.95;;;;;;;25.42;55.75;94348.31;5001962;28;20037;-90
2022/06/25 09:50:13;;;;;;;4.38;1.30;;;;;;;25.32;56.02;94344.34;5002224;28;20339;-90
2022/06/25 09:52:59;;;;;;;4.28;0.93;;;;;;;24.95;53.06;94343.06;4998488;28;20101;-89
2022/06/25 09:55:26;;;;;;;3.35;1.08;;;;;;;25.11;55.38;94350.94;4998728;28;20077;-89
2022/06/25 09:57:56;;;;;;;7.72;1.48;;;;;;;24.97;55.04;94340.03;4982251;28;20057;-85
2022/06/25 10:00:23;;;;;;;4.80;1.00;;;;;;;24.93;53.41;94350.69;4981863;28;20080;-88
2022/06/25 10:02:52;;;;;;;3.03;1.10;;;;;;;25.19;54.53;94335.75;5018335;28;20026;-89
2022/06/25 10:05:22;;;;;;;3.20;1.00;;;;;;;25.37;53.76;94341.34;4985462;28;20029;-89
2022/06/25 10:08:00;;;;;;;7.82;1.30;;;;;;;25.12;53.38;94341.00;5019163;28;20030;-88
2022/06/25 10:10:30;;;;;;;6.53;1.20;;;;;;;25.47;55.72;94342.63;5018770;28;20451;-88
2022/06/25 10:12:55;;;;;;;5.80;0.98;;;;;;;25.74;53.84;94342.59;5001620;28;20026;-88
2022/06/25 10:15:30;;;;;;;8.48;1.63;;;;;;;25.83;51.39;94340.41;5018984;28;20526;-87
2022/06/25 10:17:56;;;;;;;4.80;1.20;;;;;;;25.36;51.97;94342.50;5002433;28;20033;-87
2022/06/25 10:20:23;;;;;;;2.85;1.10;;;;;;;25.16;55.17;94336.47;5001338;28;20033;-89
2022/06/25 10:22:50;;;;;;;3.97;1.10;;;;;;;24.43;55.52;94337.22;5001562;28;20068;-89
2022/06/25 10:25:26;;;;;;;8.20;1.05;;;;;;;24.48;56.14;94349.56;5001350;28;20029;-91
2022/06/25 10:28:05;;;;;;;2.90;1.02;;;;;;;25.25;54.23;94338.88;5000999;28;20474;-88
2022/06/25 10:30:48;;;;;;;5.50;1.75;;;;;;;25.18;53.84;94344.91;5001274;28;20431;-88
2022/06/25 10:33:21;;;;;;;4.00;1.13;;;;;;;25.01;51.80;94334.72;5000979;28;20026;-87
2022/06/25 10:35:48;;;;;;;5.93;1.42;;;;;;;24.79;53.18;94334.38;4985257;28;20410;-88
2022/06/25 10:38:21;;;;;;;4.72;1.00;;;;;;;25.42;51.23;94334.91;5000876;28;20021;-88
2022/06/25 10:40:49;;;;;;;4.43;1.17;;;;;;;25.85;54.68;94340.03;5001049;28;20471;-87
2022/06/25 10:43:45;;;;;;;5.28;1.15;;;;;;;25.66;52.34;94341.75;5018200;28;20030;-87
2022/06/25 10:46:30;;;;;;;4.68;1.00;;;;;;;25.51;52.08;94332.72;5000437;28;20022;-88
2022/06/25 10:49:10;;;;;;;3.30;1.25;;;;;;;25.59;51.66;94338.97;5018283;28;20427;-88
2022/06/25 10:51:38;;;;;;;6.60;1.30;;;;;;;25.93;50.80;94335.50;5000967;28;20029;-90
2022/06/25 10:54:06;;;;;;;6.72;1.15;;;;;;;26.05;51.37;94337.19;5017737;28;20030;-88
2022/06/25 10:56:51;;;;;;;4.20;1.27;;;;;;;26.47;52.71;94338.00;5000932;28;20056;-88
2022/06/25 10:59:46;;;;;;;2.70;1.30;;;;;;;26.46;50.13;94336.44;5000212;28;20460;-88
2022/06/25 11:02:14;;;;;;;3.08;1.10;;;;;;;26.19;48.30;94339.25;4996060;28;20038;-86
2022/06/25 11:04:47;;;;;;;3.08;1.35;;;;;;;26.29;48.17;94329.75;4984271;28;20080;-89
2022/06/25 11:07:17;;;;;;;3.78;1.63;;;;;;;26.37;48.44;94326.78;5000508;28;20025;-87
2022/06/25 11:09:51;;;;;;;3.50;1.77;;;;;;;26.28;47.84;94331.69;4984404;28;20029;-88
2022/06/25 11:12:17;;;;;;;7.38;1.17;;;;;;;26.49;47.77;94333.78;5017748;28;20029;-88
2022/06/25 11:14:43;;;;;;;5.60;1.30;;;;;;;26.52;48.09;94326.91;5017900;28;20048;-88
2022/06/25 11:17:12;;;;;;;4.63;1.00;;;;;;;26.39;46.06;94335.22;5000075;28;20045;-87
2022/06/25 11:19:43;;;;;;;3.97;1.10;;;;;;;26.37;44.61;94334.06;4999421;28;20022;-87
2022/06/25 11:22:09;;;;;;;3.70;1.10;;;;;;;26.54;46.98;94328.06;5017763;28;20446;-88
2022/06/25 11:24:34;;;;;;;5.00;1.25;;;;;;;26.19;45.40;94326.63;5017744;28;20030;-88
2022/06/25 11:29:51;;;;;;;6.90;1.15;;;;;;;26.34;48.64;94316.78;5002092;28;20105;-88